Time;durP1;ratioP1;P1;durP2;ratioP2;P2;SDS_P1;SDS_P2;PMS_P1;PMS_P2;Temp;Humidity;BMP_temperature;BMP_pressure;BME280_temperature;BME280_humidity;BME280_pressure;Samples;Min_cycle;Max_cycle;Signal;HPM_P1;HPM_P2
2024/01/05 00:02:04;;;;;;;46.47;17.27;;;;;;;;;;5062683;28;20017;-80
2024/01/05 00:04:30;;;;;;;37.60;16.95;;;;;;;;;;5048190;28;20028;-80
2024/01/05 00:06:56;;;;;;;42.88;20.05;;;;;;;;;;5052179;28;20017;-80
2024/01/05 00:09:22;;;;;;;38.58;17.88;;;;;;;;;;5068222;28;20023;-80
2024/01/05 00:11:48;;;;;;;39.97;18.73;;;;;;;;;;5067351;28;20380;-80
2024/01/05 00:14:14;;;;;;;42.58;20.27;;;;;;;;;;5047953;28;20021;-80
2024/01/05 00:16:40;;;;;;;42.20;19.27;;;;;;;;;;5048485;28;20019;-80
2024/01/05 00:19:06;;;;;;;39.92;18.52;;;;;;;;;;5069439;28;20089;-79
2024/01/05 00:21:32;;;;;;;47.55;19.73;;;;;;;;;;5068424;28;20457;-80
2024/01/05 00:23:58;;;;;;;39.90;18.85;;;;;;;;;;5049200;28;20036;-80
2024/01/05 00:26:25;;;;;;;43.28;20.33;;;;;;;;;;5048486;28;20417;-79
2024/01/05 00:28:51;;;;;;;47.95;20.77;;;;;;;;;;5065344;28;20104;-80
2024/01/05 00:31:17;;;;;;;48.40;21.10;;;;;;;;;;5068204;28;20013;-80
2024/01/05 00:33:43;;;;;;;43.53;20.67;;;;;;;;;;5052087;28;20020;-80
2024/01/05 00:36:10;;;;;;;44.45;20.85;;;;;;;;;;5047869;28;20063;-80
2024/01/05 00:38:36;;;;;;;47.63;21.90;;;;;;;;;;5062723;28;20477;-80
2024/01/05 00:41:03;;;;;;;54.20;24.40;;;;;;;;;;5068028;28;20059;-80
2024/01/05 00:43:29;;;;;;;51.03;24.05;;;;;;;;;;5054930;28;20025;-80
2024/01/05 00:45:55;;;;;;;52.13;23.95;;;;;;;;;;5047815;28;20075;-80
2024/01/05 00:48:21;;;;;;;54.70;24.63;;;;;;;;;;5059368;28;20024;-79
2024/01/05 00:50:47;;;;;;;52.97;24.20;;;;;;;;;;5067926;28;20384;-80
2024/01/05 00:53:13;;;;;;;53.13;25.58;;;;;;;;;;5058103;28;20028;-79
2024/01/05 00:55:40;;;;;;;53.47;25.77;;;;;;;;;;5049289;28;20488;-79
2024/01/05 00:58:06;;;;;;;55.85;25.60;;;;;;;;;;5056421;28;20066;-80
2024/01/05 01:00:32;;;;;;;47.50;24.23;;;;;;;;;;5071478;28;20077;-80
2024/01/05 01:02:58;;;;;;;45.30;23.17;;;;;;;;;;5066344;28;20038;-80
2024/01/05 01:05:24;;;;;;;49.40;23.05;;;;;;;;;;5051476;28;20104;-80
2024/01/05 01:07:50;;;;;;;46.80;22.55;;;;;;;;;;5057717;28;20013;-79
2024/01/05 01:10:16;;;;;;;43.35;21.25;;;;;;;;;;5071421;28;20016;-80
2024/01/05 01:12:42;;;;;;;43.95;21.73;;;;;;;;;;5068265;28;20028;-80
2024/01/05 01:15:09;;;;;;;48.78;23.85;;;;;;;;;;5051200;28;20032;-80
2024/01/05 01:17:35;;;;;;;49.55;22.58;;;;;;;;;;5053050;28;20465;-80
2024/01/05 01:20:01;;;;;;;41.30;23.20;;;;;;;;;;5072582;28;20012;-80
2024/01/05 01:22:27;;;;;;;45.28;24.48;;;;;;;;;;5072029;28;20648;-80
2024/01/05 01:24:53;;;;;;;44.97;24.15;;;;;;;;;;5052590;28;20021;-80
2024/01/05 01:27:19;;;;;;;46.03;23.25;;;;;;;;;;5051088;28;20017;-80
2024/01/05 01:29:45;;;;;;;41.78;21.88;;;;;;;;;;5069292;28;20491;-79
2024/01/05 01:32:11;;;;;;;46.75;23.65;;;;;;;;;;5071043;28;20101;-79
2024/01/05 01:34:38;;;;;;;48.20;24.92;;;;;;;;;;5054123;28;20037;-79
2024/01/05 01:37:04;;;;;;;50.83;24.38;;;;;;;;;;5050943;28;20017;-79
2024/01/05 01:39:30;;;;;;;47.60;24.27;;;;;;;;;;5065874;28;20012;-79
2024/01/05 01:41:57;;;;;;;47.67;23.95;;;;;;;;;;5072093;28;20005;-79
2024/01/05 01:44:23;;;;;;;50.95;24.25;;;;;;;;;;5056719;28;20543;-80
2024/01/05 01:46:54;;;;;;;48.70;23.88;;;;;;;;;;5050772;28;20021;-80
2024/01/05 01:49:20;;;;;;;42.67;22.13;;;;;;;;;;5063737;28;20069;-79
2024/01/05 01:51:46;;;;;;;45.83;23.20;;;;;;;;;;5071838;28;20461;-80
2024/01/05 01:54:13;;;;;;;47.53;24.10;;;;;;;;;;5059116;28;20477;-79
2024/01/05 01:56:39;;;;;;;51.15;24.92;;;;;;;;;;5050480;28;20066;-80
2024/01/05 01:59:06;;;;;;;49.58;23.13;;;;;;;;;;5060721;28;20484;-79
2024/01/05 02:01:32;;;;;;;40.40;20.73;;;;;;;;;;5070667;28;20443;-80
2024/01/05 02:03:58;;;;;;;48.38;23.67;;;;;;;;;;5061600;28;20245;-80
2024/01/05 02:06:24;;;;;;;50.47;23.60;;;;;;;;;;5050273;28;20073;-80
2024/01/05 02:08:50;;;;;;;48.45;22.50;;;;;;;;;;5058900;28;20381;-79
2024/01/05 02:11:17;;;;;;;44.33;21.77;;;;;;;;;;5069536;28;20013;-80
2024/01/05 02:13:43;;;;;;;45.85;22.45;;;;;;;;;;5064381;28;20021;-80
2024/01/05 02:16:09;;;;;;;46.25;22.17;;;;;;;;;;5050119;28;20021;-80
2024/01/05 02:18:35;;;;;;;44.05;21.17;;;;;;;;;;5054182;28;20019;-79
2024/01/05 02:21:02;;;;;;;45.83;21.75;;;;;;;;;;5070044;28;20020;-80
2024/01/05 02:23:28;;;;;;;45.60;21.27;;;;;;;;;;5067475;28;20366;-80
2024/01/05 02:25:55;;;;;;;47.08;22.90;;;;;;;;;;5049869;28;20043;-80
2024/01/05 02:28:21;;;;;;;45.72;22.80;;;;;;;;;;5050742;28;20020;-80
2024/01/05 02:30:47;;;;;;;42.42;21.25;;;;;;;;;;5071111;28;20027;-80
2024/01/05 02:33:13;;;;;;;48.45;23.50;;;;;;;;;;5069943;28;20465;-80
2024/01/05 02:35:39;;;;;;;52.00;23.10;;;;;;;;;;5050001;28;20072;-80
2024/01/05 02:38:05;;;;;;;51.20;21.98;;;;;;;;;;5050981;28;20028;-80
2024/01/05 02:40:31;;;;;;;39.58;18.35;;;;;;;;;;5068397;28;20031;-80
2024/01/05 02:42:58;;;;;;;49.40;22.90;;;;;;;;;;5069577;28;20029;-79
2024/01/05 02:45:24;;;;;;;47.05;23.08;;;;;;;;;;5053742;28;20380;-80
2024/01/05 02:47:53;;;;;;;46.70;23.70;;;;;;;;;;5049649;28;20090;-81
2024/01/05 02:50:20;;;;;;;44.93;20.67;;;;;;;;;;5065128;28;20023;-79
2024/01/05 02:52:46;;;;;;;48.92;22.92;;;;;;;;;;5070754;28;20323;-80
2024/01/05 02:55:13;;;;;;;50.53;21.85;;;;;;;;;;5057837;28;20394;-79
2024/01/05 02:57:39;;;;;;;54.85;22.25;;;;;;;;;;5049482;28;20062;-79
2024/01/05 03:00:05;;;;;;;52.05;23.02;;;;;;;;;;5061823;28;20171;-80
2024/01/05 03:02:32;;;;;;;53.45;21.83;;;;;;;;;;5069242;28;20539;-81
2024/01/05 03:04:58;;;;;;;52.22;22.23;;;;;;;;;;5059179;28;20017;-80
2024/01/05 03:07:24;;;;;;;54.45;23.50;;;;;;;;;;5038980;28;20036;-79
2024/01/05 03:09:50;;;;;;;48.35;23.50;;;;;;;;;;5053158;28;20464;-79
2024/01/05 03:12:17;;;;;;;53.00;24.85;;;;;;;;;;5070478;28;20015;-79
2024/01/05 03:14:43;;;;;;;49.30;22.40;;;;;;;;;;5063527;28;20012;-80
2024/01/05 03:17:09;;;;;;;56.20;25.15;;;;;;;;;;5029088;28;20040;-80
2024/01/05 03:19:35;;;;;;;52.63;23.33;;;;;;;;;;5040150;28;20012;-79
2024/01/05 03:22:01;;;;;;;49.05;22.40;;;;;;;;;;5070160;28;20429;-80
2024/01/05 03:24:27;;;;;;;52.85;22.88;;;;;;;;;;5065708;28;20218;-79
2024/01/05 03:26:53;;;;;;;52.85;24.05;;;;;;;;;;5048985;28;20013;-79
2024/01/05 03:29:19;;;;;;;50.58;23.00;;;;;;;;;;5050520;28;20384;-80
2024/01/05 03:31:46;;;;;;;50.55;22.58;;;;;;;;;;5068698;28;20508;-79
2024/01/05 03:34:12;;;;;;;57.13;23.20;;;;;;;;;;5065144;28;20017;-79
2024/01/05 03:36:38;;;;;;;51.97;23.00;;;;;;;;;;5068633;28;20028;-79
2024/01/05 03:39:04;;;;;;;50.50;22.25;;;;;;;;;;5068693;28;20157;-80
2024/01/05 03:41:30;;;;;;;45.65;20.50;;;;;;;;;;5049881;28;20400;-80
2024/01/05 03:43:56;;;;;;;49.25;21.80;;;;;;;;;;5048485;28;20039;-80
2024/01/05 03:46:22;;;;;;;50.55;21.10;;;;;;;;;;5065905;28;20865;-79
2024/01/05 03:48:48;;;;;;;43.95;20.10;;;;;;;;;;5068527;28;20456;-80
2024/01/05 03:51:14;;;;;;;47.45;19.30;;;;;;;;;;5052726;28;20013;-80
2024/01/05 03:53:40;;;;;;;43.75;20.27;;;;;;;;;;5048485;28;20221;-80
2024/01/05 03:56:07;;;;;;;44.67;20.15;;;;;;;;;;5062373;28;20017;-80
2024/01/05 03:58:33;;;;;;;42.92;21.25;;;;;;;;;;5068398;28;20472;-80
2024/01/05 04:01:00;;;;;;;46.40;19.05;;;;;;;;;;5055667;28;20024;-80
2024/01/05 04:03:26;;;;;;;45.13;19.90;;;;;;;;;;5049638;28;20033;-80
2024/01/05 04:05:52;;;;;;;39.47;19.83;;;;;;;;;;5059385;28;20009;-80
2024/01/05 04:08:18;;;;;;;36.63;18.60;;;;;;;;;;5069482;28;20021;-80
2024/01/05 04:10:44;;;;;;;37.00;18.38;;;;;;;;;;5060528;28;20013;-80
2024/01/05 04:13:10;;;;;;;38.05;18.15;;;;;;;;;;5068366;28;20035;-80
2024/01/05 04:15:37;;;;;;;40.60;18.38;;;;;;;;;;5060781;28;20519;-80
2024/01/05 04:18:03;;;;;;;36.83;16.88;;;;;;;;;;5049396;28;20465;-80
2024/01/05 04:20:29;;;;;;;34.28;16.25;;;;;;;;;;5054704;28;20145;-80
2024/01/05 04:22:55;;;;;;;33.90;17.10;;;;;;;;;;5068067;28;20412;-80
2024/01/05 04:25:21;;;;;;;31.85;15.63;;;;;;;;;;5063776;28;20161;-80
2024/01/05 04:27:47;;;;;;;34.50;17.63;;;;;;;;;;5048435;28;20025;-80
2024/01/05 04:30:13;;;;;;;39.75;18.13;;;;;;;;;;5051017;28;20062;-80
2024/01/05 04:32:39;;;;;;;34.65;17.80;;;;;;;;;;5068195;28;20051;-80
2024/01/05 04:35:06;;;;;;;44.25;17.60;;;;;;;;;;5070540;28;20400;-80
2024/01/05 04:37:32;;;;;;;36.13;17.38;;;;;;;;;;5052338;28;20025;-80
2024/01/05 04:39:58;;;;;;;35.50;17.25;;;;;;;;;;5052206;28;20039;-80
2024/01/05 04:42:26;;;;;;;38.35;18.50;;;;;;;;;;5073165;28;20484;-79
2024/01/05 04:44:52;;;;;;;34.58;17.40;;;;;;;;;;5072053;28;20017;-79
2024/01/05 04:47:18;;;;;;;34.30;15.23;;;;;;;;;;5053190;28;20321;-80
2024/01/05 04:49:44;;;;;;;37.45;16.92;;;;;;;;;;5051683;28;20017;-79
2024/01/05 04:52:10;;;;;;;37.53;16.83;;;;;;;;;;5070155;28;20411;-80
2024/01/05 04:54:37;;;;;;;34.25;17.25;;;;;;;;;;5071787;28;20025;-80
2024/01/05 04:57:03;;;;;;;39.75;18.38;;;;;;;;;;5056132;28;20089;-80
2024/01/05 04:59:29;;;;;;;37.80;17.40;;;;;;;;;;5051731;28;20477;-80
2024/01/05 05:01:55;;;;;;;37.60;16.92;;;;;;;;;;5065494;28;20016;-80
2024/01/05 05:04:21;;;;;;;40.85;18.85;;;;;;;;;;5072574;28;20396;-80
2024/01/05 05:06:47;;;;;;;41.17;17.42;;;;;;;;;;5059462;28;20013;-80
2024/01/05 05:09:13;;;;;;;39.38;17.23;;;;;;;;;;5051293;28;20469;-80
2024/01/05 05:11:43;;;;;;;42.75;18.13;;;;;;;;;;5062016;28;20023;-80
2024/01/05 05:14:09;;;;;;;45.38;18.45;;;;;;;;;;5072858;28;20020;-80
2024/01/05 05:16:35;;;;;;;42.28;18.38;;;;;;;;;;5061411;28;20032;-80
2024/01/05 05:19:01;;;;;;;42.40;18.23;;;;;;;;;;5052659;28;20025;-83
2024/01/05 05:21:29;;;;;;;40.13;18.30;;;;;;;;;;5060044;28;20048;-81
2024/01/05 05:23:55;;;;;;;41.35;18.45;;;;;;;;;;5071455;28;20033;-81
2024/01/05 05:26:22;;;;;;;44.05;18.60;;;;;;;;;;5060793;28;20558;-81
2024/01/05 05:28:48;;;;;;;41.20;18.85;;;;;;;;;;5066747;28;20364;-82
2024/01/05 05:31:14;;;;;;;44.17;18.85;;;;;;;;;;5061619;28;20017;-82
2024/01/05 05:33:40;;;;;;;45.00;21.52;;;;;;;;;;5059026;28;20415;-81
2024/01/05 05:36:06;;;;;;;45.47;18.88;;;;;;;;;;5062311;28;20036;-80
2024/01/05 05:38:32;;;;;;;47.72;18.95;;;;;;;;;;5058078;28;20047;-81
2024/01/05 05:40:58;;;;;;;50.92;19.17;;;;;;;;;;5062210;28;20036;-80
2024/01/05 05:43:24;;;;;;;48.33;18.58;;;;;;;;;;5061291;28;20063;-81
2024/01/05 05:45:50;;;;;;;47.45;18.50;;;;;;;;;;5054834;28;20449;-81
2024/01/05 05:48:16;;;;;;;49.53;19.15;;;;;;;;;;5070686;28;20485;-80
2024/01/05 05:50:42;;;;;;;49.55;19.40;;;;;;;;;;5072578;28;20016;-84
2024/01/05 05:53:09;;;;;;;52.47;19.80;;;;;;;;;;5052077;28;20075;-80
2024/01/05 05:55:35;;;;;;;50.17;20.40;;;;;;;;;;5052173;28;20009;-82
2024/01/05 05:58:01;;;;;;;54.38;20.23;;;;;;;;;;5068347;28;20108;-82
2024/01/05 06:00:28;;;;;;;47.80;17.95;;;;;;;;;;5070622;28;20052;-82
2024/01/05 06:02:53;;;;;;;47.60;17.95;;;;;;;;;;5054852;28;20025;-80
2024/01/05 06:05:19;;;;;;;49.42;20.17;;;;;;;;;;5050182;28;20024;-81
2024/01/05 06:07:46;;;;;;;52.33;20.80;;;;;;;;;;5050063;28;20040;-81
2024/01/05 06:10:12;;;;;;;64.47;21.40;;;;;;;;;;5049984;28;20017;-81
2024/01/05 06:12:38;;;;;;;54.35;20.83;;;;;;;;;;5053645;28;20009;-82
2024/01/05 06:15:04;;;;;;;59.65;20.92;;;;;;;;;;5049949;28;20020;-80
2024/01/05 06:17:30;;;;;;;59.50;21.45;;;;;;;;;;5051923;28;20049;-82
2024/01/05 06:19:56;;;;;;;63.10;21.52;;;;;;;;;;5050570;28;20052;-82
2024/01/05 06:22:22;;;;;;;64.35;22.13;;;;;;;;;;5053026;28;20090;-84
2024/01/05 06:24:48;;;;;;;60.00;22.58;;;;;;;;;;5050091;28;20013;-80
2024/01/05 06:27:14;;;;;;;54.65;20.27;;;;;;;;;;5050253;28;20039;-79
2024/01/05 06:29:40;;;;;;;55.05;21.00;;;;;;;;;;5049609;28;20016;-80
2024/01/05 06:32:06;;;;;;;54.10;21.25;;;;;;;;;;5049639;28;20074;-80
2024/01/05 06:34:32;;;;;;;53.08;18.23;;;;;;;;;;5050973;28;20118;-80
2024/01/05 06:36:59;;;;;;;53.20;19.85;;;;;;;;;;5047404;28;20384;-80
2024/01/05 06:39:25;;;;;;;49.92;19.13;;;;;;;;;;5049412;28;20429;-80
2024/01/05 06:41:51;;;;;;;45.05;20.10;;;;;;;;;;5050792;28;20558;-80
2024/01/05 06:44:17;;;;;;;50.25;19.60;;;;;;;;;;5049401;28;20028;-80
2024/01/05 06:46:43;;;;;;;41.65;16.95;;;;;;;;;;5051448;28;20021;-80
2024/01/05 06:49:09;;;;;;;45.88;18.30;;;;;;;;;;5069901;28;20017;-80
2024/01/05 06:51:41;;;;;;;51.78;18.88;;;;;;;;;;5069550;28;20042;-79
2024/01/05 06:54:07;;;;;;;50.25;19.33;;;;;;;;;;5029717;28;20025;-80
2024/01/05 06:56:34;;;;;;;47.42;18.90;;;;;;;;;;5029412;28;20021;-78
2024/01/05 06:59:01;;;;;;;50.45;20.08;;;;;;;;;;5067990;28;20020;-79
2024/01/05 07:01:27;;;;;;;54.72;20.27;;;;;;;;;;5068700;28;20046;-78
2024/01/05 07:03:53;;;;;;;50.75;19.83;;;;;;;;;;5066075;28;20081;-78
2024/01/05 07:06:19;;;;;;;53.33;21.23;;;;;;;;;;5070464;28;20028;-78
2024/01/05 07:08:45;;;;;;;51.88;20.73;;;;;;;;;;5069005;28;20426;-78
2024/01/05 07:11:21;;;;;;;61.25;20.65;;;;;;;;;;5070280;28;20021;-78
2024/01/05 07:13:48;;;;;;;61.05;20.92;;;;;;;;;;5051423;28;20075;-79
2024/01/05 07:16:20;;;;;;;58.63;21.95;;;;;;;;;;5049526;28;20044;-79
2024/01/05 07:18:47;;;;;;;59.10;21.83;;;;;;;;;;5065070;28;20095;-79
2024/01/05 07:21:16;;;;;;;61.25;21.88;;;;;;;;;;5068290;28;20421;-78
2024/01/05 07:23:46;;;;;;;64.67;22.33;;;;;;;;;;5053588;28;20025;-79
2024/01/05 07:26:12;;;;;;;61.50;20.60;;;;;;;;;;5049229;28;20254;-78
2024/01/05 07:28:38;;;;;;;59.20;22.48;;;;;;;;;;5062611;28;20019;-79
2024/01/05 07:31:05;;;;;;;60.47;22.52;;;;;;;;;;5062989;28;20539;-79
2024/01/05 07:33:31;;;;;;;67.75;22.40;;;;;;;;;;5049458;28;20013;-79
2024/01/05 07:35:57;;;;;;;68.93;21.70;;;;;;;;;;5047325;28;20127;-78
2024/01/05 07:38:24;;;;;;;64.88;21.30;;;;;;;;;;5048950;28;20055;-79
2024/01/05 07:40:50;;;;;;;62.85;21.63;;;;;;;;;;5048961;28;20013;-79
2024/01/05 07:43:16;;;;;;;68.07;22.85;;;;;;;;;;5047414;28;20071;-79
2024/01/05 07:45:42;;;;;;;62.00;22.85;;;;;;;;;;5047804;28;20240;-79
2024/01/05 07:48:08;;;;;;;63.78;22.92;;;;;;;;;;5052353;28;20041;-79
2024/01/05 07:50:34;;;;;;;62.85;22.83;;;;;;;;;;5044352;28;20009;-79
2024/01/05 07:53:00;;;;;;;60.38;21.70;;;;;;;;;;5041226;28;20382;-80
2024/01/05 07:55:26;;;;;;;63.40;21.55;;;;;;;;;;5067824;28;20019;-80
2024/01/05 07:57:52;;;;;;;71.80;22.60;;;;;;;;;;5063479;28;20074;-80
2024/01/05 08:00:19;;;;;;;59.33;22.92;;;;;;;;;;5048017;28;20021;-80
2024/01/05 08:02:45;;;;;;;63.92;19.83;;;;;;;;;;5050928;28;20471;-80
2024/01/05 08:05:14;;;;;;;63.38;20.92;;;;;;;;;;5046916;28;20013;-80
2024/01/05 08:07:41;;;;;;;64.30;22.50;;;;;;;;;;5047656;28;20021;-80
2024/01/05 08:10:07;;;;;;;63.30;22.08;;;;;;;;;;5066734;28;20240;-80
2024/01/05 08:12:33;;;;;;;63.08;22.35;;;;;;;;;;5065810;28;20051;-80
2024/01/05 08:14:59;;;;;;;69.57;22.80;;;;;;;;;;5045990;28;20045;-80
2024/01/05 08:17:25;;;;;;;67.85;21.58;;;;;;;;;;5046608;28;20017;-80
2024/01/05 08:19:51;;;;;;;71.35;24.02;;;;;;;;;;5067877;28;20013;-80
2024/01/05 08:22:17;;;;;;;63.67;21.75;;;;;;;;;;5066873;28;20012;-80
2024/01/05 08:24:43;;;;;;;67.07;23.35;;;;;;;;;;5048599;28;20029;-80
2024/01/05 08:27:09;;;;;;;68.05;22.88;;;;;;;;;;5046911;28;20070;-80
2024/01/05 08:29:35;;;;;;;69.90;22.95;;;;;;;;;;5063309;28;20103;-80
2024/01/05 08:32:02;;;;;;;73.55;23.05;;;;;;;;;;5067187;28;20016;-80
2024/01/05 08:34:29;;;;;;;76.72;22.38;;;;;;;;;;5051875;28;20060;-80
2024/01/05 08:36:55;;;;;;;71.32;22.67;;;;;;;;;;5046986;28;20071;-80
2024/01/05 08:39:21;;;;;;;71.55;23.33;;;;;;;;;;5061740;28;20468;-80
2024/01/05 08:41:47;;;;;;;76.10;24.13;;;;;;;;;;5067195;28;20015;-80
2024/01/05 08:44:14;;;;;;;71.78;23.40;;;;;;;;;;5055953;28;20036;-79
2024/01/05 08:46:41;;;;;;;74.03;24.02;;;;;;;;;;5046886;28;20017;-80
2024/01/05 08:49:07;;;;;;;68.90;23.02;;;;;;;;;;5057207;28;20016;-80
2024/01/05 08:51:33;;;;;;;74.78;22.38;;;;;;;;;;5066827;28;20557;-80
2024/01/05 08:54:01;;;;;;;74.22;22.95;;;;;;;;;;5057905;28;20177;-80
2024/01/05 08:56:27;;;;;;;74.53;22.58;;;;;;;;;;5046775;28;20460;-80
2024/01/05 08:58:53;;;;;;;74.47;22.90;;;;;;;;;;5055328;28;20026;-80
2024/01/05 09:01:19;;;;;;;76.82;23.92;;;;;;;;;;5066806;28;20153;-80
2024/01/05 09:03:45;;;;;;;75.80;22.85;;;;;;;;;;5060893;28;20381;-80
2024/01/05 09:06:11;;;;;;;74.20;22.17;;;;;;;;;;5047888;28;20035;-80
2024/01/05 09:08:37;;;;;;;67.10;21.55;;;;;;;;;;5051846;28;20540;-80
2024/01/05 09:11:04;;;;;;;66.63;20.60;;;;;;;;;;5066453;28;20015;-79
2024/01/05 09:13:30;;;;;;;68.88;19.98;;;;;;;;;;5064087;28;20025;-80
2024/01/05 09:15:57;;;;;;;65.80;21.58;;;;;;;;;;5048457;28;20028;-80
2024/01/05 09:18:23;;;;;;;68.30;20.50;;;;;;;;;;5046825;28;20532;-80
2024/01/05 09:20:51;;;;;;;74.63;22.70;;;;;;;;;;5069775;28;20021;-80
2024/01/05 09:23:17;;;;;;;70.88;21.33;;;;;;;;;;5070576;28;20078;-80
2024/01/05 09:25:43;;;;;;;64.93;19.25;;;;;;;;;;5054861;28;20017;-80
2024/01/05 09:28:09;;;;;;;63.15;19.48;;;;;;;;;;5051787;28;20416;-80
2024/01/05 09:30:36;;;;;;;66.68;20.13;;;;;;;;;;5053417;28;20013;-81
2024/01/05 09:33:02;;;;;;;63.30;19.60;;;;;;;;;;5050723;28;20634;-81
2024/01/05 09:35:28;;;;;;;58.63;20.63;;;;;;;;;;5062753;28;20116;-81
2024/01/05 09:37:54;;;;;;;64.80;19.73;;;;;;;;;;5070625;28;20017;-81
2024/01/05 09:40:21;;;;;;;61.67;18.88;;;;;;;;;;5059503;28;20020;-81
2024/01/05 09:42:51;;;;;;;66.57;19.67;;;;;;;;;;5051243;28;20448;-81
2024/01/05 09:45:21;;;;;;;67.10;20.50;;;;;;;;;;5050517;28;20044;-81
2024/01/05 09:47:48;;;;;;;59.28;18.67;;;;;;;;;;5049579;28;20036;-81
2024/01/05 09:50:16;;;;;;;63.08;18.85;;;;;;;;;;5052347;28;20053;-81
2024/01/05 09:52:43;;;;;;;57.20;16.33;;;;;;;;;;5053935;28;20058;-81
2024/01/05 09:55:09;;;;;;;45.30;15.52;;;;;;;;;;5043629;28;20186;-80
2024/01/05 09:57:36;;;;;;;56.70;17.23;;;;;;;;;;5050314;28;20024;-81
2024/01/05 10:00:06;;;;;;;55.75;18.92;;;;;;;;;;5044896;28;20009;-80
2024/01/05 10:02:32;;;;;;;50.97;18.13;;;;;;;;;;5050470;28;20047;-80
2024/01/05 10:04:59;;;;;;;53.15;17.90;;;;;;;;;;5058283;28;20081;-81
2024/01/05 10:07:25;;;;;;;54.22;17.65;;;;;;;;;;5070711;28;20021;-81
2024/01/05 10:09:52;;;;;;;50.70;16.73;;;;;;;;;;5059858;28;20040;-81
2024/01/05 10:12:18;;;;;;;47.65;16.40;;;;;;;;;;5051547;28;20017;-81
2024/01/05 10:14:46;;;;;;;54.47;16.63;;;;;;;;;;5050577;28;20536;-81
2024/01/05 10:17:12;;;;;;;53.00;18.45;;;;;;;;;;5052622;28;20009;-81
2024/01/05 10:19:42;;;;;;;48.55;16.70;;;;;;;;;;5053284;28;20016;-81
2024/01/05 10:22:09;;;;;;;45.33;16.33;;;;;;;;;;5045861;28;20104;-81
2024/01/05 10:24:35;;;;;;;46.90;16.30;;;;;;;;;;5054270;28;20043;-80
2024/01/05 10:27:05;;;;;;;48.60;17.30;;;;;;;;;;5059880;28;20005;-81
2024/01/05 10:29:36;;;;;;;49.17;16.42;;;;;;;;;;5054239;28;20009;-81
2024/01/05 10:32:31;;;;;;;43.65;16.38;;;;;;;;;;5051445;28;20147;-81
2024/01/05 10:34:57;;;;;;;47.22;15.60;;;;;;;;;;5051565;28;20335;-81
2024/01/05 10:37:23;;;;;;;49.53;16.50;;;;;;;;;;5074875;28;20025;-81
2024/01/05 10:39:53;;;;;;;47.28;16.60;;;;;;;;;;5088272;28;20017;-81
2024/01/05 10:42:20;;;;;;;47.90;16.65;;;;;;;;;;5059709;28;20491;-81
2024/01/05 10:44:48;;;;;;;45.15;16.20;;;;;;;;;;5051438;28;20168;-81
2024/01/05 10:47:14;;;;;;;42.45;15.23;;;;;;;;;;5049891;28;20025;-81
2024/01/05 10:49:49;;;;;;;41.88;14.98;;;;;;;;;;5049784;28;20484;-81
2024/01/05 10:52:16;;;;;;;43.88;15.45;;;;;;;;;;5038103;28;20021;-81
2024/01/05 10:54:44;;;;;;;38.70;13.95;;;;;;;;;;5056536;28;20009;-81
2024/01/05 10:57:12;;;;;;;39.25;14.52;;;;;;;;;;5048873;28;20025;-81
2024/01/05 10:59:38;;;;;;;40.00;13.70;;;;;;;;;;5041054;28;20053;-81
2024/01/05 11:02:10;;;;;;;33.80;12.55;;;;;;;;;;5067752;28;20026;-81
2024/01/05 11:04:38;;;;;;;38.22;13.90;;;;;;;;;;5055705;28;20021;-81
2024/01/05 11:07:04;;;;;;;39.92;13.50;;;;;;;;;;5062107;28;20010;-80
2024/01/05 11:09:36;;;;;;;36.47;13.73;;;;;;;;;;5050602;28;20025;-81
2024/01/05 11:12:22;;;;;;;38.28;13.60;;;;;;;;;;5085658;28;20025;-80
2024/01/05 11:15:11;;;;;;;39.67;14.07;;;;;;;;;;5044027;28;20057;-79
2024/01/05 11:17:45;;;;;;;39.90;15.18;;;;;;;;;;5050390;28;20033;-80
2024/01/05 11:20:19;;;;;;;31.65;12.15;;;;;;;;;;5049149;28;20036;-81
2024/01/05 11:22:48;;;;;;;31.75;13.05;;;;;;;;;;5046361;28;20461;-80
2024/01/05 11:25:15;;;;;;;34.55;13.40;;;;;;;;;;5040880;28;20027;-81
2024/01/05 11:27:45;;;;;;;36.60;12.80;;;;;;;;;;5049612;28;20046;-80
2024/01/05 11:30:12;;;;;;;35.50;13.55;;;;;;;;;;5045012;28;20385;-81
2024/01/05 11:32:46;;;;;;;38.25;12.63;;;;;;;;;;5053141;28;20608;-80
2024/01/05 11:35:19;;;;;;;33.63;12.60;;;;;;;;;;5040001;28;20120;-80
2024/01/05 11:37:46;;;;;;;35.55;13.02;;;;;;;;;;5047593;28;20056;-81
2024/01/05 11:40:31;;;;;;;31.42;12.82;;;;;;;;;;5047491;28;20029;-80
2024/01/05 11:42:57;;;;;;;35.50;12.55;;;;;;;;;;5048805;28;20029;-81
2024/01/05 11:45:42;;;;;;;31.77;11.50;;;;;;;;;;5048416;28;20036;-81
2024/01/05 11:48:08;;;;;;;33.00;11.48;;;;;;;;;;5070517;28;20731;-80
2024/01/05 11:50:34;;;;;;;35.60;11.88;;;;;;;;;;5070649;28;20056;-80
2024/01/05 11:53:11;;;;;;;32.00;11.07;;;;;;;;;;5042521;28;20033;-80
2024/01/05 11:55:40;;;;;;;26.45;9.57;;;;;;;;;;5048465;28;20083;-80
2024/01/05 11:58:07;;;;;;;31.20;10.43;;;;;;;;;;5048308;28;20071;-80
2024/01/05 12:00:33;;;;;;;30.60;10.30;;;;;;;;;;5043568;28;20286;-80
2024/01/05 12:03:05;;;;;;;30.33;10.93;;;;;;;;;;5048367;28;20037;-80
2024/01/05 12:05:31;;;;;;;26.30;10.13;;;;;;;;;;5079592;28;20056;-80
2024/01/05 12:07:57;;;;;;;29.85;11.73;;;;;;;;;;5048960;28;20108;-79
2024/01/05 12:10:24;;;;;;;30.38;11.40;;;;;;;;;;5080235;28;20017;-80
2024/01/05 12:12:54;;;;;;;33.78;11.25;;;;;;;;;;5049430;28;20017;-84
2024/01/05 12:15:21;;;;;;;28.50;9.97;;;;;;;;;;5040802;28;20053;-80
2024/01/05 12:17:47;;;;;;;29.08;10.30;;;;;;;;;;5052456;28;20306;-81
2024/01/05 12:20:13;;;;;;;25.90;9.73;;;;;;;;;;5054221;28;20021;-81
2024/01/05 12:22:40;;;;;;;28.45;10.00;;;;;;;;;;5059402;28;20020;-81
2024/01/05 12:25:06;;;;;;;26.48;10.68;;;;;;;;;;5050108;28;20021;-80
2024/01/05 12:27:36;;;;;;;26.33;10.68;;;;;;;;;;5056622;28;20029;-81
2024/01/05 12:30:02;;;;;;;24.42;9.65;;;;;;;;;;5049453;28;20071;-81
2024/01/05 12:32:31;;;;;;;27.83;10.70;;;;;;;;;;5050234;28;20044;-81
2024/01/05 12:34:57;;;;;;;26.92;10.57;;;;;;;;;;5048447;28;20094;-81
2024/01/05 12:37:23;;;;;;;25.35;10.38;;;;;;;;;;5057465;28;20039;-81
2024/01/05 12:39:49;;;;;;;31.92;11.35;;;;;;;;;;5051644;28;20028;-80
2024/01/05 12:42:15;;;;;;;32.35;11.02;;;;;;;;;;5054485;28;20033;-80
2024/01/05 12:44:42;;;;;;;22.48;10.02;;;;;;;;;;5045635;28;20112;-80
2024/01/05 12:47:08;;;;;;;26.33;10.70;;;;;;;;;;5048664;28;20108;-80
2024/01/05 12:49:37;;;;;;;21.13;9.63;;;;;;;;;;5046212;28;20032;-80
2024/01/05 12:52:05;;;;;;;30.30;11.67;;;;;;;;;;5045082;28;20025;-81
2024/01/05 12:54:43;;;;;;;24.73;10.70;;;;;;;;;;5041784;28;20029;-80
2024/01/05 12:57:09;;;;;;;26.73;10.43;;;;;;;;;;5053577;28;20052;-81
2024/01/05 12:59:36;;;;;;;24.85;11.00;;;;;;;;;;5051914;28;20064;-81
2024/01/05 13:02:03;;;;;;;26.42;11.63;;;;;;;;;;5052422;28;20043;-81
2024/01/05 13:04:36;;;;;;;22.50;10.32;;;;;;;;;;5049249;28;20048;-80
2024/01/05 13:07:03;;;;;;;25.33;11.43;;;;;;;;;;5045999;28;20013;-81
2024/01/05 13:09:32;;;;;;;27.35;11.52;;;;;;;;;;5052585;28;20021;-80
2024/01/05 13:11:58;;;;;;;31.05;12.02;;;;;;;;;;5047823;28;20025;-80
2024/01/05 13:14:24;;;;;;;32.13;14.05;;;;;;;;;;5055759;28;20404;-80
2024/01/05 13:16:50;;;;;;;33.65;13.30;;;;;;;;;;5051558;28;20017;-85
2024/01/05 13:19:17;;;;;;;24.13;11.13;;;;;;;;;;5055154;28;20108;-82
2024/01/05 13:21:43;;;;;;;30.92;14.00;;;;;;;;;;5048559;28;20029;-82
2024/01/05 13:24:09;;;;;;;31.35;13.18;;;;;;;;;;5055158;28;20120;-82
2024/01/05 13:26:35;;;;;;;29.13;12.27;;;;;;;;;;5050738;28;20159;-81
2024/01/05 13:29:01;;;;;;;33.08;12.23;;;;;;;;;;5056426;28;20039;-82
2024/01/05 13:31:27;;;;;;;26.60;11.63;;;;;;;;;;5052122;28;20478;-81
2024/01/05 13:33:53;;;;;;;28.48;11.60;;;;;;;;;;5051013;28;20039;-82
2024/01/05 13:36:20;;;;;;;28.48;11.65;;;;;;;;;;5052025;28;20045;-82
2024/01/05 13:38:47;;;;;;;25.35;11.07;;;;;;;;;;5043075;28;20509;-82
2024/01/05 13:41:13;;;;;;;24.33;10.60;;;;;;;;;;5050173;28;20028;-81
2024/01/05 13:43:39;;;;;;;25.15;11.45;;;;;;;;;;5036191;28;20045;-81
2024/01/05 13:46:07;;;;;;;27.75;11.85;;;;;;;;;;5041433;28;20076;-82
2024/01/05 13:48:33;;;;;;;26.88;11.60;;;;;;;;;;5054679;28;20021;-81
2024/01/05 13:50:59;;;;;;;26.92;11.98;;;;;;;;;;5051720;28;20512;-81
2024/01/05 13:53:25;;;;;;;26.08;11.93;;;;;;;;;;5053785;28;20044;-82
2024/01/05 13:55:50;;;;;;;31.27;15.32;;;;;;;;;;5049782;28;20108;-81
2024/01/05 13:58:16;;;;;;;28.88;13.75;;;;;;;;;;5052460;28;20021;-82
2024/01/05 14:00:43;;;;;;;26.98;12.10;;;;;;;;;;5051241;28;20029;-81
2024/01/05 14:03:09;;;;;;;29.42;13.27;;;;;;;;;;5053107;28;20034;-81
2024/01/05 14:05:35;;;;;;;27.33;12.35;;;;;;;;;;5049204;28;20028;-81
2024/01/05 14:08:01;;;;;;;31.08;16.00;;;;;;;;;;5052225;28;20019;-81
2024/01/05 14:10:27;;;;;;;30.08;14.20;;;;;;;;;;5050064;28;20067;-81
2024/01/05 14:12:53;;;;;;;24.35;11.38;;;;;;;;;;5051581;28;20021;-81
2024/01/05 14:15:19;;;;;;;27.17;11.77;;;;;;;;;;5051565;28;20017;-81